sensor_id;sensor_type;location;lat;lon;timestamp;pressure;altitude;pressure_sealevel;temperature;humidity
49999;BME280;68071;45.062;7.356;2023-08-31T00:00:12;94555.97;;;18.07;42.77
49999;BME280;68071;45.062;7.356;2023-08-31T00:03:17;94558.34;;;18.33;40.73
49999;BME280;68071;45.062;7.356;2023-08-31T00:06:20;94565.72;;;18.45;39.85
49999;BME280;68071;45.062;7.356;2023-08-31T00:09:25;94555.06;;;18.34;41.36
49999;BME280;68071;45.062;7.356;2023-08-31T00:12:30;94556.19;;;18.52;40.56
49999;BME280;68071;45.062;7.356;2023-08-31T00:15:34;94556.09;;;18.46;40.27
49999;BME280;68071;45.062;7.356;2023-08-31T00:18:40;94544.47;;;18.05;43.07
49999;BME280;68071;45.062;7.356;2023-08-31T00:21:45;94548.84;;;17.87;43.91
49999;BME280;68071;45.062;7.356;2023-08-31T00:24:48;94555.00;;;18.10;41.45
49999;BME280;68071;45.062;7.356;2023-08-31T00:27:53;94569.25;;;18.21;41.24
49999;BME280;68071;45.062;7.356;2023-08-31T00:31:00;94560.34;;;18.32;40.66
49999;BME280;68071;45.062;7.356;2023-08-31T00:34:07;94559.38;;;18.11;40.81
49999;BME280;68071;45.062;7.356;2023-08-31T00:37:11;94564.75;;;18.24;41.11
49999;BME280;68071;45.062;7.356;2023-08-31T00:40:16;94566.13;;;18.28;41.52
49999;BME280;68071;45.062;7.356;2023-08-31T00:43:20;94565.19;;;18.56;39.91
49999;BME280;68071;45.062;7.356;2023-08-31T00:46:24;94560.91;;;18.70;39.94
49999;BME280;68071;45.062;7.356;2023-08-31T00:49:31;94568.41;;;18.39;40.04
49999;BME280;68071;45.062;7.356;2023-08-31T00:52:35;94569.34;;;18.36;40.11
49999;BME280;68071;45.062;7.356;2023-08-31T00:55:40;94565.84;;;18.51;40.47
49999;BME280;68071;45.062;7.356;2023-08-31T00:58:44;94559.97;;;18.15;41.69
49999;BME280;68071;45.062;7.356;2023-08-31T01:05:07;94559.22;;;17.25;45.88
49999;BME280;68071;45.062;7.356;2023-08-31T01:14:56;94571.66;;;15.64;64.79
49999;BME280;68071;45.062;7.356;2023-08-31T01:18:04;94572.72;;;14.78;69.92
49999;BME280;68071;45.062;7.356;2023-08-31T01:21:33;94573.69;;;15.19;67.99
49999;BME280;68071;45.062;7.356;2023-08-31T01:24:41;94587.56;;;14.62;71.36
49999;BME280;68071;45.062;7.356;2023-08-31T01:27:45;94579.56;;;14.64;72.49
49999;BME280;68071;45.062;7.356;2023-08-31T01:30:49;94584.16;;;14.32;73.27
49999;BME280;68071;45.062;7.356;2023-08-31T01:34:33;94584.59;;;14.43;73.63
49999;BME280;68071;45.062;7.356;2023-08-31T01:40:54;94578.13;;;16.74;46.13
49999;BME280;68071;45.062;7.356;2023-08-31T01:44:00;94586.53;;;17.39;43.70
49999;BME280;68071;45.062;7.356;2023-08-31T01:47:06;94581.66;;;17.77;41.41
49999;BME280;68071;45.062;7.356;2023-08-31T01:50:11;94577.56;;;17.88;41.55
49999;BME280;68071;45.062;7.356;2023-08-31T01:53:15;94591.53;;;17.97;40.65
49999;BME280;68071;45.062;7.356;2023-08-31T01:56:19;94588.94;;;17.84;41.65
49999;BME280;68071;45.062;7.356;2023-08-31T01:59:25;94577.53;;;18.06;40.40
49999;BME280;68071;45.062;7.356;2023-08-31T02:02:31;94582.19;;;18.09;40.59
49999;BME280;68071;45.062;7.356;2023-08-31T02:05:35;94586.09;;;18.12;41.14
49999;BME280;68071;45.062;7.356;2023-08-31T02:08:39;94591.09;;;17.89;40.07
49999;BME280;68071;45.062;7.356;2023-08-31T02:11:43;94588.91;;;17.93;41.64
49999;BME280;68071;45.062;7.356;2023-08-31T02:14:47;94592.63;;;17.99;39.89
49999;BME280;68071;45.062;7.356;2023-08-31T02:17:50;94592.00;;;18.05;40.08
49999;BME280;68071;45.062;7.356;2023-08-31T02:20:55;94602.31;;;18.32;38.51
49999;BME280;68071;45.062;7.356;2023-08-31T02:24:00;94604.16;;;18.35;38.94
49999;BME280;68071;45.062;7.356;2023-08-31T02:27:04;94617.34;;;18.44;37.95
49999;BME280;68071;45.062;7.356;2023-08-31T02:30:08;94611.72;;;18.53;37.65
49999;BME280;68071;45.062;7.356;2023-08-31T02:33:12;94607.09;;;18.41;38.00
49999;BME280;68071;45.062;7.356;2023-08-31T02:36:16;94612.31;;;18.24;38.57
49999;BME280;68071;45.062;7.356;2023-08-31T02:39:20;94603.84;;;18.33;37.75
49999;BME280;68071;45.062;7.356;2023-08-31T02:42:24;94601.31;;;18.44;37.52
49999;BME280;68071;45.062;7.356;2023-08-31T02:45:28;94597.78;;;18.35;38.10
49999;BME280;68071;45.062;7.356;2023-08-31T02:48:32;94612.00;;;18.12;38.55
49999;BME280;68071;45.062;7.356;2023-08-31T02:51:36;94607.22;;;18.04;39.61
49999;BME280;68071;45.062;7.356;2023-08-31T02:54:40;94611.91;;;17.88;40.65
49999;BME280;68071;45.062;7.356;2023-08-31T02:57:44;94612.97;;;17.91;39.06
49999;BME280;68071;45.062;7.356;2023-08-31T03:00:48;94613.00;;;17.81;40.89
49999;BME280;68071;45.062;7.356;2023-08-31T03:03:53;94615.81;;;17.81;39.56
49999;BME280;68071;45.062;7.356;2023-08-31T03:06:59;94613.16;;;17.78;41.04
49999;BME280;68071;45.062;7.356;2023-08-31T03:10:03;94609.88;;;17.89;41.03
49999;BME280;68071;45.062;7.356;2023-08-31T03:13:07;94610.84;;;17.86;41.71
49999;BME280;68071;45.062;7.356;2023-08-31T03:16:11;94617.72;;;17.10;50.23
49999;BME280;68071;45.062;7.356;2023-08-31T03:19:15;94618.47;;;16.42;56.76
49999;BME280;68071;45.062;7.356;2023-08-31T03:22:19;94624.47;;;15.68;60.92
49999;BME280;68071;45.062;7.356;2023-08-31T03:25:23;94628.78;;;15.47;62.26
49999;BME280;68071;45.062;7.356;2023-08-31T03:28:28;94631.53;;;15.37;65.20
49999;BME280;68071;45.062;7.356;2023-08-31T03:31:32;94645.19;;;15.45;64.81
49999;BME280;68071;45.062;7.356;2023-08-31T03:34:36;94645.13;;;15.35;67.36
49999;BME280;68071;45.062;7.356;2023-08-31T03:37:40;94656.63;;;14.63;70.63
49999;BME280;68071;45.062;7.356;2023-08-31T03:40:55;94664.69;;;15.09;70.09
49999;BME280;68071;45.062;7.356;2023-08-31T03:43:59;94667.53;;;14.19;76.73
49999;BME280;68071;45.062;7.356;2023-08-31T03:47:03;94675.00;;;14.22;73.44
49999;BME280;68071;45.062;7.356;2023-08-31T03:50:08;94670.41;;;13.89;81.23
49999;BME280;68071;45.062;7.356;2023-08-31T03:53:12;94677.00;;;13.66;84.41
49999;BME280;68071;45.062;7.356;2023-08-31T03:56:16;94687.94;;;13.44;88.48
49999;BME280;68071;45.062;7.356;2023-08-31T03:59:20;94690.56;;;13.18;89.66
49999;BME280;68071;45.062;7.356;2023-08-31T04:02:24;94688.13;;;13.66;83.89
49999;BME280;68071;45.062;7.356;2023-08-31T04:05:32;94701.97;;;13.37;87.41
49999;BME280;68071;45.062;7.356;2023-08-31T04:08:36;94697.78;;;13.61;85.38
49999;BME280;68071;45.062;7.356;2023-08-31T04:11:41;94690.63;;;13.31;91.89
49999;BME280;68071;45.062;7.356;2023-08-31T04:14:45;94704.97;;;12.96;95.03
49999;BME280;68071;45.062;7.356;2023-08-31T04:17:49;94708.78;;;13.19;92.38
49999;BME280;68071;45.062;7.356;2023-08-31T04:20:55;94713.66;;;13.61;89.64
49999;BME280;68071;45.062;7.356;2023-08-31T04:24:02;94709.75;;;13.58;91.34
49999;BME280;68071;45.062;7.356;2023-08-31T04:27:07;94714.16;;;13.43;89.35
49999;BME280;68071;45.062;7.356;2023-08-31T04:30:12;94720.63;;;13.53;89.91
49999;BME280;68071;45.062;7.356;2023-08-31T04:33:15;94723.53;;;13.16;92.46
49999;BME280;68071;45.062;7.356;2023-08-31T04:36:22;94723.47;;;13.66;90.29
49999;BME280;68071;45.062;7.356;2023-08-31T04:39:27;94723.47;;;13.66;90.71
49999;BME280;68071;45.062;7.356;2023-08-31T04:42:31;94735.91;;;13.28;97.11
49999;BME280;68071;45.062;7.356;2023-08-31T04:45:35;94735.78;;;13.02;99.94
49999;BME280;68071;45.062;7.356;2023-08-31T04:48:38;94736.50;;;13.36;99.62
49999;BME280;68071;45.062;7.356;2023-08-31T04:51:44;94739.91;;;13.43;99.55
49999;BME280;68071;45.062;7.356;2023-08-31T04:54:48;94742.31;;;13.58;94.54
49999;BME280;68071;45.062;7.356;2023-08-31T04:57:52;94753.34;;;12.79;100.00
49999;BME280;68071;45.062;7.356;2023-08-31T05:00:56;94759.25;;;13.47;95.45
49999;BME280;68071;45.062;7.356;2023-08-31T05:04:00;94758.69;;;13.52;95.03
49999;BME280;68071;45.062;7.356;2023-08-31T05:07:04;94762.47;;;12.96;100.00
49999;BME280;68071;45.062;7.356;2023-08-31T05:10:08;94771.72;;;13.39;96.25
49999;BME280;68071;45.062;7.356;2023-08-31T05:13:12;94765.47;;;13.35;97.89
49999;BME280;68071;45.062;7.356;2023-08-31T05:16:16;94775.34;;;13.36;93.55
49999;BME280;68071;45.062;7.356;2023-08-31T05:19:20;94770.13;;;13.71;90.70
49999;BME280;68071;45.062;7.356;2023-08-31T05:22:24;94780.34;;;13.74;90.55
49999;BME280;68071;45.062;7.356;2023-08-31T05:25:28;94788.56;;;13.31;97.36
49999;BME280;68071;45.062;7.356;2023-08-31T05:28:32;94786.91;;;13.18;100.00
49999;BME280;68071;45.062;7.356;2023-08-31T05:31:36;94786.97;;;12.81;100.00
49999;BME280;68071;45.062;7.356;2023-08-31T05:34:41;94789.75;;;12.81;98.96
49999;BME280;68071;45.062;7.356;2023-08-31T05:37:45;94792.53;;;12.81;100.00
49999;BME280;68071;45.062;7.356;2023-08-31T05:40:49;94787.53;;;12.92;100.00
49999;BME280;68071;45.062;7.356;2023-08-31T05:43:53;94792.19;;;12.79;100.00
49999;BME280;68071;45.062;7.356;2023-08-31T05:46:57;94793.16;;;13.05;100.00
49999;BME280;68071;45.062;7.356;2023-08-31T05:50:01;94804.53;;;13.11;100.00
49999;BME280;68071;45.062;7.356;2023-08-31T05:53:07;94808.78;;;13.15;100.00
49999;BME280;68071;45.062;7.356;2023-08-31T05:56:12;94817.44;;;13.18;100.00
49999;BME280;68071;45.062;7.356;2023-08-31T05:59:16;94820.31;;;13.14;100.00
49999;BME280;68071;45.062;7.356;2023-08-31T06:02:20;94818.56;;;13.53;100.00
49999;BME280;68071;45.062;7.356;2023-08-31T06:05:24;94824.66;;;14.24;94.93
49999;BME280;68071;45.062;7.356;2023-08-31T06:08:28;94829.06;;;14.63;90.91
49999;BME280;68071;45.062;7.356;2023-08-31T06:11:34;94832.38;;;14.75;92.46
49999;BME280;68071;45.062;7.356;2023-08-31T06:14:38;94838.59;;;15.05;94.26
49999;BME280;68071;45.062;7.356;2023-08-31T06:17:42;94844.72;;;15.12;94.31
49999;BME280;68071;45.062;7.356;2023-08-31T06:20:49;94843.72;;;15.19;93.78
49999;BME280;68071;45.062;7.356;2023-08-31T06:23:53;94848.09;;;15.68;94.11
49999;BME280;68071;45.062;7.356;2023-08-31T06:26:57;94850.66;;;15.88;95.38
49999;BME280;68071;45.062;7.356;2023-08-31T06:30:02;94853.63;;;16.07;94.39
49999;BME280;68071;45.062;7.356;2023-08-31T06:33:08;94856.97;;;16.24;91.54
49999;BME280;68071;45.062;7.356;2023-08-31T06:36:12;94851.28;;;16.50;91.19
49999;BME280;68071;45.062;7.356;2023-08-31T06:39:16;94855.44;;;16.68;88.92
49999;BME280;68071;45.062;7.356;2023-08-31T06:42:20;94860.47;;;16.82;89.33
49999;BME280;68071;45.062;7.356;2023-08-31T06:45:24;94873.31;;;17.02;88.52
49999;BME280;68071;45.062;7.356;2023-08-31T06:48:28;94871.94;;;17.06;95.73
49999;BME280;68071;45.062;7.356;2023-08-31T06:51:33;94882.09;;;17.22;96.85
49999;BME280;68071;45.062;7.356;2023-08-31T06:54:37;94888.03;;;17.24;92.56
49999;BME280;68071;45.062;7.356;2023-08-31T06:57:41;94884.22;;;17.09;88.01
49999;BME280;68071;45.062;7.356;2023-08-31T07:00:46;94896.22;;;17.19;84.12
49999;BME280;68071;45.062;7.356;2023-08-31T07:03:51;94887.66;;;17.54;84.82
49999;BME280;68071;45.062;7.356;2023-08-31T07:06:55;94889.91;;;17.87;81.47
49999;BME280;68071;45.062;7.356;2023-08-31T07:09:59;94894.75;;;17.96;78.04
49999;BME280;68071;45.062;7.356;2023-08-31T07:13:04;94896.38;;;18.16;77.39
49999;BME280;68071;45.062;7.356;2023-08-31T07:16:08;94897.44;;;18.09;79.79
49999;BME280;68071;45.062;7.356;2023-08-31T07:19:12;94902.72;;;18.35;70.52
49999;BME280;68071;45.062;7.356;2023-08-31T07:22:16;94889.53;;;18.35;72.31
49999;BME280;68071;45.062;7.356;2023-08-31T07:25:20;94899.19;;;18.62;68.63
49999;BME280;68071;45.062;7.356;2023-08-31T07:28:25;94898.53;;;18.95;67.21
49999;BME280;68071;45.062;7.356;2023-08-31T07:31:29;94905.34;;;19.03;63.16
49999;BME280;68071;45.062;7.356;2023-08-31T07:34:33;94904.53;;;19.22;60.68
49999;BME280;68071;45.062;7.356;2023-08-31T07:37:37;94909.09;;;18.91;63.96
49999;BME280;68071;45.062;7.356;2023-08-31T07:40:42;94914.53;;;18.95;65.86
49999;BME280;68071;45.062;7.356;2023-08-31T07:43:46;94915.78;;;18.56;66.56
49999;BME280;68071;45.062;7.356;2023-08-31T07:46:50;94908.97;;;18.29;79.63
49999;BME280;68071;45.062;7.356;2023-08-31T07:49:55;94904.28;;;18.54;78.55
49999;BME280;68071;45.062;7.356;2023-08-31T07:52:59;94908.63;;;18.55;77.39
49999;BME280;68071;45.062;7.356;2023-08-31T07:56:03;94902.59;;;18.57;78.00
49999;BME280;68071;45.062;7.356;2023-08-31T07:59:07;94910.81;;;18.60;73.09
49999;BME280;68071;45.062;7.356;2023-08-31T08:02:12;94917.19;;;18.70;75.23
49999;BME280;68071;45.062;7.356;2023-08-31T08:05:16;94915.97;;;18.81;70.88
49999;BME280;68071;45.062;7.356;2023-08-31T08:08:19;94935.56;;;18.71;72.94
49999;BME280;68071;45.062;7.356;2023-08-31T08:11:23;94926.53;;;18.95;68.25
49999;BME280;68071;45.062;7.356;2023-08-31T08:14:28;94936.28;;;19.28;64.43
49999;BME280;68071;45.062;7.356;2023-08-31T08:17:32;94943.66;;;18.97;69.64
49999;BME280;68071;45.062;7.356;2023-08-31T08:20:36;94937.38;;;19.21;66.98
49999;BME280;68071;45.062;7.356;2023-08-31T08:23:40;94939.66;;;19.32;61.86
49999;BME280;68071;45.062;7.356;2023-08-31T08:26:44;94941.34;;;19.39;67.83
49999;BME280;68071;45.062;7.356;2023-08-31T08:29:48;94953.59;;;19.60;64.33
49999;BME280;68071;45.062;7.356;2023-08-31T08:32:52;94952.31;;;20.13;59.69
49999;BME280;68071;45.062;7.356;2023-08-31T08:36:00;94954.38;;;19.60;62.48
49999;BME280;68071;45.062;7.356;2023-08-31T08:39:04;94962.31;;;19.62;64.21
49999;BME280;68071;45.062;7.356;2023-08-31T08:42:10;94949.75;;;19.57;63.88
49999;BME280;68071;45.062;7.356;2023-08-31T08:45:16;94951.66;;;19.32;60.18
49999;BME280;68071;45.062;7.356;2023-08-31T08:48:20;94952.06;;;19.59;60.66
49999;BME280;68071;45.062;7.356;2023-08-31T08:51:27;94959.66;;;19.58;63.06
49999;BME280;68071;45.062;7.356;2023-08-31T08:54:32;94959.41;;;19.90;60.65
49999;BME280;68071;45.062;7.356;2023-08-31T08:57:36;94962.38;;;19.86;65.33
49999;BME280;68071;45.062;7.356;2023-08-31T09:00:40;94954.84;;;20.02;62.83
49999;BME280;68071;45.062;7.356;2023-08-31T09:03:45;94954.31;;;20.13;62.65
49999;BME280;68071;45.062;7.356;2023-08-31T09:06:52;94957.00;;;20.07;61.75
49999;BME280;68071;45.062;7.356;2023-08-31T09:09:56;94966.44;;;20.43;61.46
49999;BME280;68071;45.062;7.356;2023-08-31T09:13:00;94957.66;;;20.75;57.18
49999;BME280;68071;45.062;7.356;2023-08-31T09:16:04;94968.91;;;20.50;55.09
49999;BME280;68071;45.062;7.356;2023-08-31T09:19:21;94971.31;;;21.06;52.10
49999;BME280;68071;45.062;7.356;2023-08-31T09:22:26;94964.81;;;21.30;53.86
49999;BME280;68071;45.062;7.356;2023-08-31T09:25:30;94971.09;;;20.70;57.12
49999;BME280;68071;45.062;7.356;2023-08-31T09:28:34;94968.59;;;20.73;59.45
49999;BME280;68071;45.062;7.356;2023-08-31T09:31:44;94979.25;;;21.23;62.61
49999;BME280;68071;45.062;7.356;2023-08-31T09:34:49;94978.22;;;21.65;54.83
49999;BME280;68071;45.062;7.356;2023-08-31T09:37:56;94972.38;;;21.84;58.39
49999;BME280;68071;45.062;7.356;2023-08-31T09:41:06;94974.41;;;21.38;58.71
49999;BME280;68071;45.062;7.356;2023-08-31T09:44:17;94976.47;;;21.83;56.44
49999;BME280;68071;45.062;7.356;2023-08-31T09:47:22;94973.75;;;21.73;52.28
49999;BME280;68071;45.062;7.356;2023-08-31T09:50:28;94968.25;;;21.64;56.49
49999;BME280;68071;45.062;7.356;2023-08-31T09:53:36;94965.44;;;22.00;53.29
49999;BME280;68071;45.062;7.356;2023-08-31T09:56:41;94958.63;;;21.71;63.89
49999;BME280;68071;45.062;7.356;2023-08-31T09:59:46;94960.25;;;21.93;57.39
49999;BME280;68071;45.062;7.356;2023-08-31T10:02:50;94973.16;;;21.84;55.57
49999;BME280;68071;45.062;7.356;2023-08-31T10:05:56;94962.97;;;21.42;63.18
49999;BME280;68071;45.062;7.356;2023-08-31T10:09:05;94967.44;;;21.49;57.94
49999;BME280;68071;45.062;7.356;2023-08-31T10:12:10;94961.31;;;21.80;53.57
49999;BME280;68071;45.062;7.356;2023-08-31T10:15:15;94959.97;;;21.30;58.80
49999;BME280;68071;45.062;7.356;2023-08-31T10:18:20;94965.13;;;21.62;58.73
49999;BME280;68071;45.062;7.356;2023-08-31T10:21:25;94955.22;;;22.17;56.55
49999;BME280;68071;45.062;7.356;2023-08-31T10:28:16;94962.88;;;21.81;59.67
49999;BME280;68071;45.062;7.356;2023-08-31T10:31:21;94959.56;;;22.18;59.20
49999;BME280;68071;45.062;7.356;2023-08-31T10:34:35;94950.97;;;22.63;53.31
49999;BME280;68071;45.062;7.356;2023-08-31T10:37:43;94960.84;;;22.53;55.40
49999;BME280;68071;45.062;7.356;2023-08-31T10:44:19;94955.16;;;21.97;65.25
49999;BME280;68071;45.062;7.356;2023-08-31T10:47:36;94958.09;;;21.87;62.18
49999;BME280;68071;45.062;7.356;2023-08-31T10:50:41;94959.19;;;21.75;60.16
49999;BME280;68071;45.062;7.356;2023-08-31T10:53:46;94956.94;;;21.19;60.61
49999;BME280;68071;45.062;7.356;2023-08-31T11:00:12;94958.66;;;22.27;59.13
49999;BME280;68071;45.062;7.356;2023-08-31T11:03:17;94959.91;;;22.05;57.66
49999;BME280;68071;45.062;7.356;2023-08-31T11:06:21;94953.97;;;21.83;59.72
49999;BME280;68071;45.062;7.356;2023-08-31T11:09:28;94963.53;;;21.91;60.20
49999;BME280;68071;45.062;7.356;2023-08-31T11:12:33;94965.75;;;21.87;60.88
49999;BME280;68071;45.062;7.356;2023-08-31T11:15:36;94969.22;;;22.12;58.95
49999;BME280;68071;45.062;7.356;2023-08-31T11:18:40;94961.88;;;22.76;52.67
49999;BME280;68071;45.062;7.356;2023-08-31T11:21:44;94956.38;;;23.35;50.24
49999;BME280;68071;45.062;7.356;2023-08-31T11:24:48;94962.28;;;23.37;55.57
49999;BME280;68071;45.062;7.356;2023-08-31T11:27:57;94960.88;;;23.21;52.31
49999;BME280;68071;45.062;7.356;2023-08-31T11:31:02;94962.56;;;23.39;56.28
49999;BME280;68071;45.062;7.356;2023-08-31T11:34:15;94956.09;;;23.59;54.33
49999;BME280;68071;45.062;7.356;2023-08-31T11:37:19;94962.69;;;23.82;49.22
49999;BME280;68071;45.062;7.356;2023-08-31T11:40:26;94955.19;;;22.94;56.07
49999;BME280;68071;45.062;7.356;2023-08-31T11:43:31;94959.44;;;23.10;51.96
49999;BME280;68071;45.062;7.356;2023-08-31T11:46:36;94962.09;;;23.72;50.48
49999;BME280;68071;45.062;7.356;2023-08-31T11:49:43;94943.28;;;23.64;58.33
49999;BME280;68071;45.062;7.356;2023-08-31T11:52:48;94955.69;;;22.72;55.56
49999;BME280;68071;45.062;7.356;2023-08-31T11:55:53;94955.50;;;22.55;56.61
49999;BME280;68071;45.062;7.356;2023-08-31T11:58:57;94953.22;;;22.39;55.58
49999;BME280;68071;45.062;7.356;2023-08-31T12:02:01;94949.00;;;22.70;55.49
49999;BME280;68071;45.062;7.356;2023-08-31T12:05:06;94954.25;;;22.41;57.79
49999;BME280;68071;45.062;7.356;2023-08-31T12:08:10;94955.13;;;22.68;60.90
49999;BME280;68071;45.062;7.356;2023-08-31T12:11:14;94950.47;;;23.33;53.79
49999;BME280;68071;45.062;7.356;2023-08-31T12:14:26;94958.69;;;23.36;54.78
49999;BME280;68071;45.062;7.356;2023-08-31T12:17:31;94967.25;;;24.06;52.12
49999;BME280;68071;45.062;7.356;2023-08-31T12:20:34;94960.31;;;24.07;50.10
49999;BME280;68071;45.062;7.356;2023-08-31T12:23:44;94961.06;;;24.02;53.41
49999;BME280;68071;45.062;7.356;2023-08-31T12:26:49;94965.47;;;24.09;53.63
49999;BME280;68071;45.062;7.356;2023-08-31T12:29:53;94961.41;;;24.21;51.19
49999;BME280;68071;45.062;7.356;2023-08-31T12:32:57;94957.47;;;24.01;52.08
49999;BME280;68071;45.062;7.356;2023-08-31T12:36:01;94965.44;;;23.71;52.07
49999;BME280;68071;45.062;7.356;2023-08-31T12:39:09;94966.06;;;23.54;54.41
49999;BME280;68071;45.062;7.356;2023-08-31T12:42:14;94963.22;;;23.86;54.68
49999;BME280;68071;45.062;7.356;2023-08-31T12:45:18;94959.56;;;24.12;51.90
49999;BME280;68071;45.062;7.356;2023-08-31T12:48:22;94960.13;;;23.84;54.62
49999;BME280;68071;45.062;7.356;2023-08-31T12:51:26;94967.53;;;24.08;53.76
49999;BME280;68071;45.062;7.356;2023-08-31T12:54:30;94964.66;;;24.46;57.18
49999;BME280;68071;45.062;7.356;2023-08-31T12:57:34;94973.03;;;24.72;53.04
49999;BME280;68071;45.062;7.356;2023-08-31T13:00:38;94976.50;;;24.50;51.61
49999;BME280;68071;45.062;7.356;2023-08-31T13:03:43;94970.94;;;24.67;50.59
49999;BME280;68071;45.062;7.356;2023-08-31T13:06:47;94963.31;;;24.85;51.01
49999;BME280;68071;45.062;7.356;2023-08-31T13:09:51;94974.59;;;24.79;50.10
49999;BME280;68071;45.062;7.356;2023-08-31T13:12:55;94970.72;;;24.71;50.57
49999;BME280;68071;45.062;7.356;2023-08-31T13:16:00;94967.75;;;24.48;48.79
49999;BME280;68071;45.062;7.356;2023-08-31T13:19:04;94963.22;;;23.86;50.04
49999;BME280;68071;45.062;7.356;2023-08-31T13:22:08;94963.59;;;24.38;50.58
49999;BME280;68071;45.062;7.356;2023-08-31T13:25:12;94966.84;;;23.93;52.58
49999;BME280;68071;45.062;7.356;2023-08-31T13:28:16;94964.03;;;23.93;52.15
49999;BME280;68071;45.062;7.356;2023-08-31T13:31:21;94967.19;;;24.38;51.24
49999;BME280;68071;45.062;7.356;2023-08-31T13:34:25;94967.78;;;23.78;50.84
49999;BME280;68071;45.062;7.356;2023-08-31T13:37:29;94966.00;;;24.13;49.09
49999;BME280;68071;45.062;7.356;2023-08-31T13:40:34;94965.97;;;23.49;53.62
49999;BME280;68071;45.062;7.356;2023-08-31T13:43:38;94969.78;;;23.19;54.66
49999;BME280;68071;45.062;7.356;2023-08-31T13:46:42;94969.75;;;23.40;52.83
49999;BME280;68071;45.062;7.356;2023-08-31T13:49:46;94978.03;;;23.76;51.46
49999;BME280;68071;45.062;7.356;2023-08-31T13:52:51;94974.41;;;24.01;54.24
49999;BME280;68071;45.062;7.356;2023-08-31T13:55:55;94978.59;;;24.55;49.82
49999;BME280;68071;45.062;7.356;2023-08-31T13:58:59;94971.97;;;24.70;47.31
49999;BME280;68071;45.062;7.356;2023-08-31T14:02:03;94970.78;;;24.39;49.16
49999;BME280;68071;45.062;7.356;2023-08-31T14:05:08;94974.03;;;23.94;49.92
49999;BME280;68071;45.062;7.356;2023-08-31T14:08:13;94968.53;;;24.49;50.91
49999;BME280;68071;45.062;7.356;2023-08-31T14:11:17;94962.53;;;24.35;49.52
49999;BME280;68071;45.062;7.356;2023-08-31T14:14:21;94966.84;;;24.25;49.64
49999;BME280;68071;45.062;7.356;2023-08-31T14:17:26;94972.59;;;24.42;50.00
49999;BME280;68071;45.062;7.356;2023-08-31T14:20:31;94971.19;;;24.20;49.11
49999;BME280;68071;45.062;7.356;2023-08-31T14:23:35;94966.59;;;23.91;50.46
49999;BME280;68071;45.062;7.356;2023-08-31T14:26:40;94968.16;;;23.92;51.74
49999;BME280;68071;45.062;7.356;2023-08-31T14:29:44;94968.69;;;24.28;49.12
49999;BME280;68071;45.062;7.356;2023-08-31T14:32:47;94974.31;;;24.28;47.84
49999;BME280;68071;45.062;7.356;2023-08-31T14:35:51;94970.28;;;24.40;47.84
49999;BME280;68071;45.062;7.356;2023-08-31T14:38:59;94964.94;;;24.54;49.41
49999;BME280;68071;45.062;7.356;2023-08-31T14:42:03;94976.81;;;24.69;47.15
49999;BME280;68071;45.062;7.356;2023-08-31T14:45:07;94967.03;;;24.59;48.09
49999;BME280;68071;45.062;7.356;2023-08-31T14:48:11;94968.66;;;23.96;49.26
49999;BME280;68071;45.062;7.356;2023-08-31T14:51:15;94969.00;;;23.71;52.14
49999;BME280;68071;45.062;7.356;2023-08-31T14:54:19;94966.81;;;23.87;56.56
49999;BME280;68071;45.062;7.356;2023-08-31T14:57:24;94975.03;;;24.17;54.99
49999;BME280;68071;45.062;7.356;2023-08-31T15:00:28;94978.03;;;24.51;52.61
49999;BME280;68071;45.062;7.356;2023-08-31T15:03:31;94975.91;;;24.84;54.58
49999;BME280;68071;45.062;7.356;2023-08-31T15:06:35;94983.16;;;24.53;52.64
49999;BME280;68071;45.062;7.356;2023-08-31T15:09:39;94979.50;;;24.90;51.73
49999;BME280;68071;45.062;7.356;2023-08-31T15:12:43;94985.03;;;25.28;47.32
49999;BME280;68071;45.062;7.356;2023-08-31T15:15:47;94980.66;;;25.21;46.96
49999;BME280;68071;45.062;7.356;2023-08-31T15:18:51;94980.00;;;24.83;51.04
49999;BME280;68071;45.062;7.356;2023-08-31T15:21:55;94979.38;;;25.33;47.51
49999;BME280;68071;45.062;7.356;2023-08-31T15:24:59;94988.69;;;25.45;47.41
49999;BME280;68071;45.062;7.356;2023-08-31T15:28:03;94983.56;;;25.61;44.51
49999;BME280;68071;45.062;7.356;2023-08-31T15:31:11;94993.53;;;25.33;46.43
49999;BME280;68071;45.062;7.356;2023-08-31T15:34:16;94992.97;;;25.18;46.72
49999;BME280;68071;45.062;7.356;2023-08-31T15:37:19;94999.53;;;25.75;43.36
49999;BME280;68071;45.062;7.356;2023-08-31T15:40:23;94990.50;;;26.39;42.75
49999;BME280;68071;45.062;7.356;2023-08-31T15:43:32;95001.41;;;27.11;39.55
49999;BME280;68071;45.062;7.356;2023-08-31T15:46:37;94996.44;;;26.30;41.10
49999;BME280;68071;45.062;7.356;2023-08-31T15:49:41;95003.66;;;26.03;44.32
49999;BME280;68071;45.062;7.356;2023-08-31T15:52:46;95006.53;;;26.14;43.51
49999;BME280;68071;45.062;7.356;2023-08-31T15:55:50;95006.00;;;27.20;41.08
49999;BME280;68071;45.062;7.356;2023-08-31T15:58:54;95014.72;;;27.75;39.84
49999;BME280;68071;45.062;7.356;2023-08-31T16:01:57;95009.06;;;26.40;44.21
49999;BME280;68071;45.062;7.356;2023-08-31T16:05:06;95013.06;;;26.96;43.23
49999;BME280;68071;45.062;7.356;2023-08-31T16:08:10;95013.13;;;27.38;40.67
49999;BME280;68071;45.062;7.356;2023-08-31T16:11:14;95005.94;;;27.73;41.22
49999;BME280;68071;45.062;7.356;2023-08-31T16:14:18;95006.94;;;26.75;46.61
49999;BME280;68071;45.062;7.356;2023-08-31T16:17:22;95009.25;;;26.60;44.50
49999;BME280;68071;45.062;7.356;2023-08-31T16:20:25;95008.97;;;26.80;46.79
49999;BME280;68071;45.062;7.356;2023-08-31T16:23:30;95012.91;;;27.30;46.18
49999;BME280;68071;45.062;7.356;2023-08-31T16:26:33;95012.59;;;25.38;49.83
49999;BME280;68071;45.062;7.356;2023-08-31T16:29:37;95006.88;;;23.91;62.50
49999;BME280;68071;45.062;7.356;2023-08-31T16:32:42;95012.78;;;22.16;80.97
49999;BME280;68071;45.062;7.356;2023-08-31T16:35:46;95004.91;;;21.15;84.21
49999;BME280;68071;45.062;7.356;2023-08-31T16:38:50;95009.34;;;20.92;84.97
49999;BME280;68071;45.062;7.356;2023-08-31T16:41:54;95006.50;;;20.19;84.05